Newmarket, NH (03857)

9:44 PM EST on December 09, 2016 (GMT -0500)
| | Change Station

Elev -9999 ft 0.00 °N, 0.00 °E | Updated 4 minutes ago

Partly Cloudy
Partly Cloudy
61 °F
Feels Like 61 °F
N
6
Wind Variable Wind from ESE
Gusts mph

Today
High -- | Low -- °F
--% Chance of Precip.
Yesterday
High -- | Low -- °F
Precip. -- in
Pressure 30.11 in
Visibility 10.0 miles
Clouds Few 5000 ft
Dew Point 52 °F
Humidity 71%
Rainfall --
Snow Depth Not available.
7:03 AM 4:08 PM
Waxing Gibbous, 79% visible
METAR KPSM 100158Z 28012G18KT 10SM FEW050 M04/M14 A3010 RMK AO2A SLP196 T10411141
Pressure 30.11 in
Visibility 10.0 miles
Clouds Few 5000 ft
Dew Point 52 °F
Humidity 71%
Rainfall --
Snow Depth Not available.
7:03 AM 4:08 PM
Waxing Gibbous, 79% visible
METAR KPSM 100158Z 28012G18KT 10SM FEW050 M04/M14 A3010 RMK AO2A SLP196 T10411141

10-Day Weather Forecast

Almanac

Astronomy

Dec. 09, 2016 Rise Set
Actual Time
Civil Twilight
Nautical Twilight
Astronomical Twilight
Moon
Length of Visible Light
Length of Day
Tomorrow will be .
, % of the Moon is Illuminated

Today's Extremes

State Highs State Lows

Community

WunderPhotos

Upload Photos

1,956,532 photos uploaded!

WunderBlog® & News

Nearby

Air Quality

  Air Quality AQ Index Pollutant
Not available.

Snow Depth

Station Depth Elevation

Earthquake Activity

City Distance Mag. Time & Date
Minimum magnitude displayed is 2.5.

Coastal Water Temperatures

Place Temperature

Stations

Nearby Weather Stations

Station Location Temp. Windchill Dew Point Humidity Wind Precip. Elev Updated Type
                   

Watches & Warnings

There are currently no watches in effect.